sensor_id;sensor_type;location;lat;lon;timestamp;P1;durP1;ratioP1;P2;durP2;ratioP2
9745;SDS011;4912;50.836;12.958;2022-12-07T00:02:24;13.45;;;7.47;;
9745;SDS011;4912;50.836;12.958;2022-12-07T00:04:54;12.75;;;7.53;;
9745;SDS011;4912;50.836;12.958;2022-12-07T00:07:24;15.13;;;8.90;;
9745;SDS011;4912;50.836;12.958;2022-12-07T00:09:55;14.07;;;8.90;;
9745;SDS011;4912;50.836;12.958;2022-12-07T00:12:28;13.60;;;8.25;;
9745;SDS011;4912;50.836;12.958;2022-12-07T00:14:58;17.77;;;9.20;;
9745;SDS011;4912;50.836;12.958;2022-12-07T00:17:29;15.63;;;9.40;;
9745;SDS011;4912;50.836;12.958;2022-12-07T00:20:00;15.77;;;10.02;;
9745;SDS011;4912;50.836;12.958;2022-12-07T00:22:30;17.42;;;10.18;;
9745;SDS011;4912;50.836;12.958;2022-12-07T00:25:01;15.77;;;9.27;;
9745;SDS011;4912;50.836;12.958;2022-12-07T00:27:34;17.17;;;9.95;;
9745;SDS011;4912;50.836;12.958;2022-12-07T00:30:05;15.73;;;9.38;;
9745;SDS011;4912;50.836;12.958;2022-12-07T00:32:37;15.97;;;10.00;;
9745;SDS011;4912;50.836;12.958;2022-12-07T00:35:07;17.83;;;10.57;;
9745;SDS011;4912;50.836;12.958;2022-12-07T00:37:38;17.20;;;10.32;;
9745;SDS011;4912;50.836;12.958;2022-12-07T00:40:09;17.77;;;10.67;;
9745;SDS011;4912;50.836;12.958;2022-12-07T00:42:43;19.52;;;10.27;;
9745;SDS011;4912;50.836;12.958;2022-12-07T00:45:13;16.98;;;9.55;;
9745;SDS011;4912;50.836;12.958;2022-12-07T00:47:44;15.18;;;9.65;;
9745;SDS011;4912;50.836;12.958;2022-12-07T00:50:14;19.60;;;10.43;;
9745;SDS011;4912;50.836;12.958;2022-12-07T00:52:45;17.65;;;9.90;;
9745;SDS011;4912;50.836;12.958;2022-12-07T00:55:15;16.00;;;9.50;;
9745;SDS011;4912;50.836;12.958;2022-12-07T00:57:48;17.33;;;10.02;;
9745;SDS011;4912;50.836;12.958;2022-12-07T01:00:18;16.67;;;10.23;;
9745;SDS011;4912;50.836;12.958;2022-12-07T01:02:49;16.92;;;9.93;;
9745;SDS011;4912;50.836;12.958;2022-12-07T01:05:20;17.92;;;10.45;;
9745;SDS011;4912;50.836;12.958;2022-12-07T01:07:50;17.38;;;10.52;;
9745;SDS011;4912;50.836;12.958;2022-12-07T01:10:21;15.65;;;9.75;;
9745;SDS011;4912;50.836;12.958;2022-12-07T01:12:54;18.08;;;10.50;;
9745;SDS011;4912;50.836;12.958;2022-12-07T01:15:24;16.90;;;9.67;;
9745;SDS011;4912;50.836;12.958;2022-12-07T01:17:54;16.27;;;9.87;;
9745;SDS011;4912;50.836;12.958;2022-12-07T01:20:25;16.97;;;9.17;;
9745;SDS011;4912;50.836;12.958;2022-12-07T01:22:55;16.90;;;9.53;;
9745;SDS011;4912;50.836;12.958;2022-12-07T01:25:25;17.63;;;10.13;;
9745;SDS011;4912;50.836;12.958;2022-12-07T01:27:58;19.70;;;10.23;;
9745;SDS011;4912;50.836;12.958;2022-12-07T01:30:29;18.83;;;10.23;;
9745;SDS011;4912;50.836;12.958;2022-12-07T01:32:59;17.77;;;10.00;;
9745;SDS011;4912;50.836;12.958;2022-12-07T01:35:29;17.10;;;10.00;;
9745;SDS011;4912;50.836;12.958;2022-12-07T01:38:03;20.20;;;10.07;;
9745;SDS011;4912;50.836;12.958;2022-12-07T01:40:33;15.87;;;9.93;;
9745;SDS011;4912;50.836;12.958;2022-12-07T01:43:07;19.20;;;11.00;;
9745;SDS011;4912;50.836;12.958;2022-12-07T01:45:45;17.53;;;9.73;;
9745;SDS011;4912;50.836;12.958;2022-12-07T01:48:15;25.73;;;10.37;;
9745;SDS011;4912;50.836;12.958;2022-12-07T01:50:50;19.17;;;10.80;;
9745;SDS011;4912;50.836;12.958;2022-12-07T01:53:24;15.57;;;10.00;;
9745;SDS011;4912;50.836;12.958;2022-12-07T01:55:59;18.67;;;9.90;;
9745;SDS011;4912;50.836;12.958;2022-12-07T01:58:32;18.42;;;9.65;;
9745;SDS011;4912;50.836;12.958;2022-12-07T02:01:04;17.00;;;9.13;;
9745;SDS011;4912;50.836;12.958;2022-12-07T02:03:35;15.75;;;9.23;;
9745;SDS011;4912;50.836;12.958;2022-12-07T02:06:10;17.33;;;9.67;;
9745;SDS011;4912;50.836;12.958;2022-12-07T02:08:45;16.07;;;9.40;;
9745;SDS011;4912;50.836;12.958;2022-12-07T02:11:16;17.10;;;9.68;;
9745;SDS011;4912;50.836;12.958;2022-12-07T02:16:25;18.37;;;9.70;;
9745;SDS011;4912;50.836;12.958;2022-12-07T02:19:14;16.43;;;9.73;;
9745;SDS011;4912;50.836;12.958;2022-12-07T02:22:26;16.27;;;9.30;;
9745;SDS011;4912;50.836;12.958;2022-12-07T02:25:32;17.07;;;9.70;;
9745;SDS011;4912;50.836;12.958;2022-12-07T02:28:26;18.33;;;11.03;;
9745;SDS011;4912;50.836;12.958;2022-12-07T02:31:04;20.17;;;10.57;;
9745;SDS011;4912;50.836;12.958;2022-12-07T02:33:40;18.10;;;10.17;;
9745;SDS011;4912;50.836;12.958;2022-12-07T02:36:16;18.07;;;9.83;;
9745;SDS011;4912;50.836;12.958;2022-12-07T02:38:55;17.83;;;10.07;;
9745;SDS011;4912;50.836;12.958;2022-12-07T02:41:31;20.13;;;10.00;;
9745;SDS011;4912;50.836;12.958;2022-12-07T02:44:06;16.33;;;9.23;;
9745;SDS011;4912;50.836;12.958;2022-12-07T02:46:43;18.27;;;9.83;;
9745;SDS011;4912;50.836;12.958;2022-12-07T02:49:21;19.10;;;10.30;;
9745;SDS011;4912;50.836;12.958;2022-12-07T02:51:53;16.50;;;8.77;;
9745;SDS011;4912;50.836;12.958;2022-12-07T02:54:23;14.43;;;8.17;;
9745;SDS011;4912;50.836;12.958;2022-12-07T02:56:56;17.90;;;8.97;;
9745;SDS011;4912;50.836;12.958;2022-12-07T02:59:37;16.33;;;9.33;;
9745;SDS011;4912;50.836;12.958;2022-12-07T03:02:28;16.37;;;8.40;;
9745;SDS011;4912;50.836;12.958;2022-12-07T03:05:12;13.27;;;7.70;;
9745;SDS011;4912;50.836;12.958;2022-12-07T03:07:56;14.83;;;8.13;;
9745;SDS011;4912;50.836;12.958;2022-12-07T03:10:35;17.33;;;7.67;;
9745;SDS011;4912;50.836;12.958;2022-12-07T03:13:16;13.07;;;7.32;;
9745;SDS011;4912;50.836;12.958;2022-12-07T03:15:55;15.90;;;7.50;;
9745;SDS011;4912;50.836;12.958;2022-12-07T03:18:35;13.67;;;6.50;;
9745;SDS011;4912;50.836;12.958;2022-12-07T03:21:09;14.03;;;6.90;;
9745;SDS011;4912;50.836;12.958;2022-12-07T03:23:44;13.27;;;7.13;;
9745;SDS011;4912;50.836;12.958;2022-12-07T03:26:19;12.03;;;6.60;;
9745;SDS011;4912;50.836;12.958;2022-12-07T03:28:55;14.93;;;6.67;;
9745;SDS011;4912;50.836;12.958;2022-12-07T03:31:33;10.83;;;5.87;;
9745;SDS011;4912;50.836;12.958;2022-12-07T03:34:11;11.87;;;6.13;;
9745;SDS011;4912;50.836;12.958;2022-12-07T03:36:49;12.00;;;6.50;;
9745;SDS011;4912;50.836;12.958;2022-12-07T03:39:26;9.83;;;6.03;;
9745;SDS011;4912;50.836;12.958;2022-12-07T03:42:03;13.40;;;6.20;;
9745;SDS011;4912;50.836;12.958;2022-12-07T03:44:37;9.93;;;5.53;;
9745;SDS011;4912;50.836;12.958;2022-12-07T03:47:10;11.82;;;5.53;;
9745;SDS011;4912;50.836;12.958;2022-12-07T03:49:53;9.00;;;5.13;;
9745;SDS011;4912;50.836;12.958;2022-12-07T03:52:30;11.07;;;5.20;;
9745;SDS011;4912;50.836;12.958;2022-12-07T03:55:08;8.50;;;5.00;;
9745;SDS011;4912;50.836;12.958;2022-12-07T03:57:46;10.20;;;5.20;;
9745;SDS011;4912;50.836;12.958;2022-12-07T04:00:21;11.90;;;4.97;;
9745;SDS011;4912;50.836;12.958;2022-12-07T04:02:52;10.32;;;5.53;;
9745;SDS011;4912;50.836;12.958;2022-12-07T04:05:26;9.75;;;5.00;;
9745;SDS011;4912;50.836;12.958;2022-12-07T04:07:57;10.00;;;4.90;;
9745;SDS011;4912;50.836;12.958;2022-12-07T04:10:27;8.30;;;4.67;;
9745;SDS011;4912;50.836;12.958;2022-12-07T04:12:58;9.03;;;4.83;;
9745;SDS011;4912;50.836;12.958;2022-12-07T04:15:28;11.63;;;4.90;;
9745;SDS011;4912;50.836;12.958;2022-12-07T04:17:58;8.90;;;5.13;;
9745;SDS011;4912;50.836;12.958;2022-12-07T04:20:31;7.63;;;4.63;;
9745;SDS011;4912;50.836;12.958;2022-12-07T04:23:01;8.90;;;5.20;;
9745;SDS011;4912;50.836;12.958;2022-12-07T04:25:32;11.47;;;5.10;;
9745;SDS011;4912;50.836;12.958;2022-12-07T04:28:02;8.60;;;5.10;;
9745;SDS011;4912;50.836;12.958;2022-12-07T04:30:33;10.52;;;6.32;;
9745;SDS011;4912;50.836;12.958;2022-12-07T04:33:03;9.93;;;5.37;;
9745;SDS011;4912;50.836;12.958;2022-12-07T04:35:37;10.07;;;4.93;;
9745;SDS011;4912;50.836;12.958;2022-12-07T04:38:08;6.90;;;4.20;;
9745;SDS011;4912;50.836;12.958;2022-12-07T04:40:38;9.97;;;4.53;;
9745;SDS011;4912;50.836;12.958;2022-12-07T04:43:09;11.67;;;4.57;;
9745;SDS011;4912;50.836;12.958;2022-12-07T04:45:39;8.25;;;4.40;;
9745;SDS011;4912;50.836;12.958;2022-12-07T04:48:15;9.60;;;4.73;;
9745;SDS011;4912;50.836;12.958;2022-12-07T04:50:50;8.23;;;4.47;;
9745;SDS011;4912;50.836;12.958;2022-12-07T04:53:20;7.50;;;4.27;;
9745;SDS011;4912;50.836;12.958;2022-12-07T04:55:50;7.33;;;3.83;;
9745;SDS011;4912;50.836;12.958;2022-12-07T04:58:21;7.97;;;4.27;;
9745;SDS011;4912;50.836;12.958;2022-12-07T05:00:53;6.90;;;3.90;;
9745;SDS011;4912;50.836;12.958;2022-12-07T05:03:25;5.80;;;3.53;;
9745;SDS011;4912;50.836;12.958;2022-12-07T05:05:57;7.00;;;3.93;;
9745;SDS011;4912;50.836;12.958;2022-12-07T05:08:28;7.93;;;4.10;;
9745;SDS011;4912;50.836;12.958;2022-12-07T05:10:58;6.67;;;4.23;;
9745;SDS011;4912;50.836;12.958;2022-12-07T05:13:29;8.65;;;4.05;;
9745;SDS011;4912;50.836;12.958;2022-12-07T05:15:59;7.67;;;4.23;;
9745;SDS011;4912;50.836;12.958;2022-12-07T05:18:30;7.68;;;3.90;;
9745;SDS011;4912;50.836;12.958;2022-12-07T05:21:03;10.20;;;5.27;;
9745;SDS011;4912;50.836;12.958;2022-12-07T05:23:33;7.67;;;3.80;;
9745;SDS011;4912;50.836;12.958;2022-12-07T05:26:04;7.57;;;3.77;;
9745;SDS011;4912;50.836;12.958;2022-12-07T05:28:34;7.43;;;4.47;;
9745;SDS011;4912;50.836;12.958;2022-12-07T05:31:05;8.20;;;4.70;;
9745;SDS011;4912;50.836;12.958;2022-12-07T05:33:35;9.70;;;3.83;;
9745;SDS011;4912;50.836;12.958;2022-12-07T05:36:08;6.47;;;3.70;;
9745;SDS011;4912;50.836;12.958;2022-12-07T05:38:39;6.23;;;3.73;;
9745;SDS011;4912;50.836;12.958;2022-12-07T05:41:11;7.85;;;4.85;;
9745;SDS011;4912;50.836;12.958;2022-12-07T05:43:56;7.57;;;4.10;;
9745;SDS011;4912;50.836;12.958;2022-12-07T05:46:26;9.13;;;4.60;;
9745;SDS011;4912;50.836;12.958;2022-12-07T05:48:57;7.43;;;4.53;;
9745;SDS011;4912;50.836;12.958;2022-12-07T05:51:30;8.17;;;5.17;;
9745;SDS011;4912;50.836;12.958;2022-12-07T05:54:00;9.20;;;4.67;;
9745;SDS011;4912;50.836;12.958;2022-12-07T05:56:30;11.87;;;5.73;;
9745;SDS011;4912;50.836;12.958;2022-12-07T05:59:00;8.60;;;4.40;;
9745;SDS011;4912;50.836;12.958;2022-12-07T06:01:43;9.13;;;4.73;;
9745;SDS011;4912;50.836;12.958;2022-12-07T06:04:13;9.90;;;5.30;;
9745;SDS011;4912;50.836;12.958;2022-12-07T06:06:46;11.03;;;5.47;;
9745;SDS011;4912;50.836;12.958;2022-12-07T06:09:17;8.37;;;4.77;;
9745;SDS011;4912;50.836;12.958;2022-12-07T06:11:48;9.63;;;5.50;;
9745;SDS011;4912;50.836;12.958;2022-12-07T06:14:31;9.50;;;5.10;;
9745;SDS011;4912;50.836;12.958;2022-12-07T06:17:02;9.70;;;5.78;;
9745;SDS011;4912;50.836;12.958;2022-12-07T06:19:33;11.15;;;6.03;;
9745;SDS011;4912;50.836;12.958;2022-12-07T06:22:07;14.15;;;6.18;;
9745;SDS011;4912;50.836;12.958;2022-12-07T06:24:38;11.90;;;6.47;;
9745;SDS011;4912;50.836;12.958;2022-12-07T06:27:09;9.13;;;5.68;;
9745;SDS011;4912;50.836;12.958;2022-12-07T06:29:40;10.20;;;6.20;;
9745;SDS011;4912;50.836;12.958;2022-12-07T06:32:10;11.07;;;6.80;;
9745;SDS011;4912;50.836;12.958;2022-12-07T06:34:41;10.80;;;6.43;;
9745;SDS011;4912;50.836;12.958;2022-12-07T06:37:15;11.33;;;6.67;;
9745;SDS011;4912;50.836;12.958;2022-12-07T06:39:46;12.00;;;6.60;;
9745;SDS011;4912;50.836;12.958;2022-12-07T06:42:16;12.23;;;6.40;;
9745;SDS011;4912;50.836;12.958;2022-12-07T06:44:46;11.83;;;6.57;;
9745;SDS011;4912;50.836;12.958;2022-12-07T06:47:16;14.27;;;7.83;;
9745;SDS011;4912;50.836;12.958;2022-12-07T06:50:07;11.30;;;6.60;;
9745;SDS011;4912;50.836;12.958;2022-12-07T06:52:41;15.13;;;7.47;;
9745;SDS011;4912;50.836;12.958;2022-12-07T06:55:11;11.67;;;6.50;;
9745;SDS011;4912;50.836;12.958;2022-12-07T06:57:41;14.20;;;6.90;;
9745;SDS011;4912;50.836;12.958;2022-12-07T07:00:12;15.67;;;8.33;;
9745;SDS011;4912;50.836;12.958;2022-12-07T07:02:48;13.23;;;7.43;;
9745;SDS011;4912;50.836;12.958;2022-12-07T07:05:18;12.57;;;7.68;;
9745;SDS011;4912;50.836;12.958;2022-12-07T07:07:51;15.03;;;7.77;;
9745;SDS011;4912;50.836;12.958;2022-12-07T07:10:41;16.37;;;7.97;;
9745;SDS011;4912;50.836;12.958;2022-12-07T07:13:12;14.10;;;7.75;;
9745;SDS011;4912;50.836;12.958;2022-12-07T07:15:42;11.97;;;6.67;;
9745;SDS011;4912;50.836;12.958;2022-12-07T07:18:12;13.07;;;8.13;;
9745;SDS011;4912;50.836;12.958;2022-12-07T07:20:43;13.65;;;8.02;;
9745;SDS011;4912;50.836;12.958;2022-12-07T07:23:16;14.23;;;8.77;;
9745;SDS011;4912;50.836;12.958;2022-12-07T07:25:46;15.70;;;8.80;;
9745;SDS011;4912;50.836;12.958;2022-12-07T07:28:17;17.23;;;9.60;;
9745;SDS011;4912;50.836;12.958;2022-12-07T07:30:48;17.85;;;9.02;;
9745;SDS011;4912;50.836;12.958;2022-12-07T07:33:18;16.77;;;8.95;;
9745;SDS011;4912;50.836;12.958;2022-12-07T07:35:49;15.43;;;8.87;;
9745;SDS011;4912;50.836;12.958;2022-12-07T07:38:21;15.83;;;9.07;;
9745;SDS011;4912;50.836;12.958;2022-12-07T07:40:52;14.87;;;8.50;;
9745;SDS011;4912;50.836;12.958;2022-12-07T07:43:22;14.23;;;9.63;;
9745;SDS011;4912;50.836;12.958;2022-12-07T07:45:52;17.70;;;9.13;;
9745;SDS011;4912;50.836;12.958;2022-12-07T07:48:23;15.73;;;9.30;;
9745;SDS011;4912;50.836;12.958;2022-12-07T07:50:53;14.47;;;8.27;;
9745;SDS011;4912;50.836;12.958;2022-12-07T07:53:26;14.27;;;8.50;;
9745;SDS011;4912;50.836;12.958;2022-12-07T07:55:56;14.60;;;8.40;;
9745;SDS011;4912;50.836;12.958;2022-12-07T07:58:27;14.37;;;8.57;;
9745;SDS011;4912;50.836;12.958;2022-12-07T08:00:58;14.03;;;8.17;;
9745;SDS011;4912;50.836;12.958;2022-12-07T08:03:34;14.50;;;7.83;;
9745;SDS011;4912;50.836;12.958;2022-12-07T08:06:05;13.68;;;8.30;;
9745;SDS011;4912;50.836;12.958;2022-12-07T08:08:38;14.32;;;8.43;;
9745;SDS011;4912;50.836;12.958;2022-12-07T08:11:08;15.30;;;9.03;;
9745;SDS011;4912;50.836;12.958;2022-12-07T08:13:39;13.52;;;7.97;;
9745;SDS011;4912;50.836;12.958;2022-12-07T08:16:09;21.13;;;8.83;;
9745;SDS011;4912;50.836;12.958;2022-12-07T08:18:41;15.03;;;8.00;;
9745;SDS011;4912;50.836;12.958;2022-12-07T08:21:13;12.65;;;7.90;;
9745;SDS011;4912;50.836;12.958;2022-12-07T08:23:47;13.87;;;8.07;;
9745;SDS011;4912;50.836;12.958;2022-12-07T08:26:18;16.27;;;7.93;;
9745;SDS011;4912;50.836;12.958;2022-12-07T08:28:48;11.80;;;7.27;;
9745;SDS011;4912;50.836;12.958;2022-12-07T08:31:19;13.45;;;7.30;;
9745;SDS011;4912;50.836;12.958;2022-12-07T08:33:50;13.52;;;7.13;;
9745;SDS011;4912;50.836;12.958;2022-12-07T08:36:20;13.87;;;7.27;;
9745;SDS011;4912;50.836;12.958;2022-12-07T08:38:54;10.25;;;6.47;;
9745;SDS011;4912;50.836;12.958;2022-12-07T08:41:45;12.05;;;7.10;;
9745;SDS011;4912;50.836;12.958;2022-12-07T08:44:15;13.17;;;6.90;;
9745;SDS011;4912;50.836;12.958;2022-12-07T08:46:46;13.80;;;6.87;;
9745;SDS011;4912;50.836;12.958;2022-12-07T08:49:21;11.98;;;7.35;;
9745;SDS011;4912;50.836;12.958;2022-12-07T08:51:56;12.80;;;7.15;;
9745;SDS011;4912;50.836;12.958;2022-12-07T08:54:29;14.23;;;6.83;;
9745;SDS011;4912;50.836;12.958;2022-12-07T08:57:00;13.35;;;7.45;;
9745;SDS011;4912;50.836;12.958;2022-12-07T08:59:30;13.07;;;7.10;;
9745;SDS011;4912;50.836;12.958;2022-12-07T09:02:03;10.60;;;6.78;;
9745;SDS011;4912;50.836;12.958;2022-12-07T09:04:33;15.82;;;7.30;;
9745;SDS011;4912;50.836;12.958;2022-12-07T09:07:04;10.77;;;6.60;;
9745;SDS011;4912;50.836;12.958;2022-12-07T09:09:37;11.73;;;7.28;;
9745;SDS011;4912;50.836;12.958;2022-12-07T09:12:08;13.20;;;7.00;;
9745;SDS011;4912;50.836;12.958;2022-12-07T09:14:38;14.70;;;7.07;;
9745;SDS011;4912;50.836;12.958;2022-12-07T09:17:09;12.63;;;7.00;;
9745;SDS011;4912;50.836;12.958;2022-12-07T09:19:41;11.63;;;7.05;;
9745;SDS011;4912;50.836;12.958;2022-12-07T09:22:11;13.70;;;6.40;;
9745;SDS011;4912;50.836;12.958;2022-12-07T09:24:44;10.63;;;6.40;;
9745;SDS011;4912;50.836;12.958;2022-12-07T09:27:15;13.07;;;6.20;;
9745;SDS011;4912;50.836;12.958;2022-12-07T09:29:45;9.07;;;6.30;;
9745;SDS011;4912;50.836;12.958;2022-12-07T09:32:16;10.67;;;6.97;;
9745;SDS011;4912;50.836;12.958;2022-12-07T09:34:46;12.07;;;7.00;;
9745;SDS011;4912;50.836;12.958;2022-12-07T09:37:17;12.88;;;6.30;;
9745;SDS011;4912;50.836;12.958;2022-12-07T09:39:50;10.02;;;6.20;;
9745;SDS011;4912;50.836;12.958;2022-12-07T09:42:25;12.25;;;6.60;;
9745;SDS011;4912;50.836;12.958;2022-12-07T09:44:59;13.10;;;6.63;;
9745;SDS011;4912;50.836;12.958;2022-12-07T09:47:31;12.30;;;7.00;;
9745;SDS011;4912;50.836;12.958;2022-12-07T09:50:03;12.60;;;6.60;;
9745;SDS011;4912;50.836;12.958;2022-12-07T09:52:41;13.52;;;6.55;;
9745;SDS011;4912;50.836;12.958;2022-12-07T09:55:18;15.18;;;7.47;;
9745;SDS011;4912;50.836;12.958;2022-12-07T09:57:54;10.73;;;6.10;;
9745;SDS011;4912;50.836;12.958;2022-12-07T10:00:25;13.90;;;7.32;;
9745;SDS011;4912;50.836;12.958;2022-12-07T10:02:56;11.67;;;7.27;;
9745;SDS011;4912;50.836;12.958;2022-12-07T10:05:30;12.13;;;6.28;;
9745;SDS011;4912;50.836;12.958;2022-12-07T10:08:08;12.95;;;6.70;;
9745;SDS011;4912;50.836;12.958;2022-12-07T10:10:53;11.40;;;6.57;;
9745;SDS011;4912;50.836;12.958;2022-12-07T10:13:34;13.20;;;7.10;;
9745;SDS011;4912;50.836;12.958;2022-12-07T10:16:26;13.52;;;6.57;;
9745;SDS011;4912;50.836;12.958;2022-12-07T10:19:19;11.73;;;6.38;;
9745;SDS011;4912;50.836;12.958;2022-12-07T10:22:05;13.88;;;6.60;;
9745;SDS011;4912;50.836;12.958;2022-12-07T10:24:40;10.02;;;6.63;;
9745;SDS011;4912;50.836;12.958;2022-12-07T10:27:19;10.88;;;6.20;;
9745;SDS011;4912;50.836;12.958;2022-12-07T10:29:52;10.73;;;6.63;;
9745;SDS011;4912;50.836;12.958;2022-12-07T10:32:27;14.13;;;6.93;;
9745;SDS011;4912;50.836;12.958;2022-12-07T10:37:54;10.07;;;5.60;;
9745;SDS011;4912;50.836;12.958;2022-12-07T10:40:30;14.20;;;6.05;;
9745;SDS011;4912;50.836;12.958;2022-12-07T10:43:17;10.98;;;6.18;;
9745;SDS011;4912;50.836;12.958;2022-12-07T10:46:04;12.15;;;5.88;;
9745;SDS011;4912;50.836;12.958;2022-12-07T10:49:15;11.45;;;5.93;;
9745;SDS011;4912;50.836;12.958;2022-12-07T10:52:16;12.55;;;5.80;;
9745;SDS011;4912;50.836;12.958;2022-12-07T10:55:08;10.70;;;5.18;;
9745;SDS011;4912;50.836;12.958;2022-12-07T10:57:55;13.23;;;4.93;;
9745;SDS011;4912;50.836;12.958;2022-12-07T11:00:43;20.40;;;10.80;;
9745;SDS011;4912;50.836;12.958;2022-12-07T11:03:33;9.60;;;4.63;;
9745;SDS011;4912;50.836;12.958;2022-12-07T11:06:14;8.00;;;4.70;;
9745;SDS011;4912;50.836;12.958;2022-12-07T11:09:01;8.23;;;4.60;;
9745;SDS011;4912;50.836;12.958;2022-12-07T11:12:11;10.35;;;4.82;;
9745;SDS011;4912;50.836;12.958;2022-12-07T11:14:54;8.55;;;4.38;;
9745;SDS011;4912;50.836;12.958;2022-12-07T11:17:35;10.00;;;4.68;;
9745;SDS011;4912;50.836;12.958;2022-12-07T11:20:17;9.45;;;4.38;;
9745;SDS011;4912;50.836;12.958;2022-12-07T11:25:48;7.65;;;4.90;;
9745;SDS011;4912;50.836;12.958;2022-12-07T11:28:27;10.73;;;4.47;;
9745;SDS011;4912;50.836;12.958;2022-12-07T11:31:13;9.63;;;4.28;;
9745;SDS011;4912;50.836;12.958;2022-12-07T11:34:00;8.65;;;4.28;;
9745;SDS011;4912;50.836;12.958;2022-12-07T11:36:38;10.73;;;4.30;;
9745;SDS011;4912;50.836;12.958;2022-12-07T11:39:16;9.55;;;4.22;;
9745;SDS011;4912;50.836;12.958;2022-12-07T11:41:56;9.05;;;4.03;;
9745;SDS011;4912;50.836;12.958;2022-12-07T11:44:34;9.60;;;4.00;;
9745;SDS011;4912;50.836;12.958;2022-12-07T11:47:19;6.97;;;4.07;;
9745;SDS011;4912;50.836;12.958;2022-12-07T11:50:01;9.18;;;3.45;;
9745;SDS011;4912;50.836;12.958;2022-12-07T11:52:51;7.78;;;4.03;;
9745;SDS011;4912;50.836;12.958;2022-12-07T11:55:29;11.50;;;4.88;;
9745;SDS011;4912;50.836;12.958;2022-12-07T11:58:14;10.15;;;3.65;;
9745;SDS011;4912;50.836;12.958;2022-12-07T12:01:06;6.22;;;3.38;;
9745;SDS011;4912;50.836;12.958;2022-12-07T12:03:55;6.97;;;3.30;;
9745;SDS011;4912;50.836;12.958;2022-12-07T12:06:33;10.80;;;5.30;;
9745;SDS011;4912;50.836;12.958;2022-12-07T12:09:04;18.17;;;9.85;;
9745;SDS011;4912;50.836;12.958;2022-12-07T12:12:14;9.43;;;4.63;;
9745;SDS011;4912;50.836;12.958;2022-12-07T12:15:26;5.00;;;2.83;;
9745;SDS011;4912;50.836;12.958;2022-12-07T12:18:22;6.95;;;2.58;;
9745;SDS011;4912;50.836;12.958;2022-12-07T12:21:07;7.63;;;3.13;;
9745;SDS011;4912;50.836;12.958;2022-12-07T12:23:48;6.75;;;2.75;;
9745;SDS011;4912;50.836;12.958;2022-12-07T12:26:26;11.73;;;2.97;;
9745;SDS011;4912;50.836;12.958;2022-12-07T12:29:00;6.47;;;2.55;;
9745;SDS011;4912;50.836;12.958;2022-12-07T12:31:36;6.25;;;3.20;;
9745;SDS011;4912;50.836;12.958;2022-12-07T12:37:02;5.78;;;3.10;;
9745;SDS011;4912;50.836;12.958;2022-12-07T12:46:44;5.65;;;2.80;;
9745;SDS011;4912;50.836;12.958;2022-12-07T12:49:31;8.27;;;2.88;;
9745;SDS011;4912;50.836;12.958;2022-12-07T12:58:40;8.13;;;3.38;;
9745;SDS011;4912;50.836;12.958;2022-12-07T13:04:23;5.63;;;2.50;;
9745;SDS011;4912;50.836;12.958;2022-12-07T13:07:13;4.20;;;2.63;;
9745;SDS011;4912;50.836;12.958;2022-12-07T13:10:35;4.45;;;2.55;;
9745;SDS011;4912;50.836;12.958;2022-12-07T13:25:12;5.70;;;2.80;;
9745;SDS011;4912;50.836;12.958;2022-12-07T13:30:30;6.88;;;2.70;;
9745;SDS011;4912;50.836;12.958;2022-12-07T13:33:02;4.13;;;2.50;;
9745;SDS011;4912;50.836;12.958;2022-12-07T13:35:34;9.07;;;2.53;;
9745;SDS011;4912;50.836;12.958;2022-12-07T13:38:15;8.07;;;2.75;;
9745;SDS011;4912;50.836;12.958;2022-12-07T13:40:59;5.97;;;2.70;;
9745;SDS011;4912;50.836;12.958;2022-12-07T13:43:44;6.35;;;2.13;;
9745;SDS011;4912;50.836;12.958;2022-12-07T13:46:24;5.55;;;2.72;;
9745;SDS011;4912;50.836;12.958;2022-12-07T13:49:03;7.45;;;2.35;;
9745;SDS011;4912;50.836;12.958;2022-12-07T13:51:48;4.32;;;2.50;;
9745;SDS011;4912;50.836;12.958;2022-12-07T13:54:20;5.03;;;2.33;;
9745;SDS011;4912;50.836;12.958;2022-12-07T13:59:24;6.25;;;2.40;;
9745;SDS011;4912;50.836;12.958;2022-12-07T14:02:01;6.97;;;2.88;;
9745;SDS011;4912;50.836;12.958;2022-12-07T14:04:32;5.90;;;3.00;;
9745;SDS011;4912;50.836;12.958;2022-12-07T14:07:21;5.55;;;2.90;;
9745;SDS011;4912;50.836;12.958;2022-12-07T14:09:55;8.27;;;2.20;;
9745;SDS011;4912;50.836;12.958;2022-12-07T14:12:28;5.90;;;2.55;;
9745;SDS011;4912;50.836;12.958;2022-12-07T14:15:00;8.00;;;2.30;;
9745;SDS011;4912;50.836;12.958;2022-12-07T14:17:35;6.03;;;2.33;;
9745;SDS011;4912;50.836;12.958;2022-12-07T14:23:00;5.60;;;2.10;;
9745;SDS011;4912;50.836;12.958;2022-12-07T14:25:44;5.18;;;2.28;;
9745;SDS011;4912;50.836;12.958;2022-12-07T14:28:27;5.05;;;2.20;;
9745;SDS011;4912;50.836;12.958;2022-12-07T14:30:59;6.68;;;2.22;;
9745;SDS011;4912;50.836;12.958;2022-12-07T14:33:33;4.82;;;2.38;;
9745;SDS011;4912;50.836;12.958;2022-12-07T14:36:04;5.57;;;2.33;;
9745;SDS011;4912;50.836;12.958;2022-12-07T14:41:06;6.63;;;2.58;;
9745;SDS011;4912;50.836;12.958;2022-12-07T14:46:47;7.68;;;2.60;;
9745;SDS011;4912;50.836;12.958;2022-12-07T14:49:41;5.63;;;2.70;;
9745;SDS011;4912;50.836;12.958;2022-12-07T14:52:13;5.68;;;2.20;;
9745;SDS011;4912;50.836;12.958;2022-12-07T14:55:11;7.13;;;2.20;;
9745;SDS011;4912;50.836;12.958;2022-12-07T14:57:45;5.53;;;2.10;;
9745;SDS011;4912;50.836;12.958;2022-12-07T15:00:16;4.43;;;1.93;;
9745;SDS011;4912;50.836;12.958;2022-12-07T15:02:48;4.75;;;1.90;;
9745;SDS011;4912;50.836;12.958;2022-12-07T15:05:22;3.65;;;2.03;;
9745;SDS011;4912;50.836;12.958;2022-12-07T15:07:52;7.45;;;2.00;;
9745;SDS011;4912;50.836;12.958;2022-12-07T15:10:23;6.37;;;1.90;;
9745;SDS011;4912;50.836;12.958;2022-12-07T15:12:58;4.55;;;2.30;;
9745;SDS011;4912;50.836;12.958;2022-12-07T15:15:42;4.78;;;1.75;;
9745;SDS011;4912;50.836;12.958;2022-12-07T15:18:12;4.33;;;2.37;;
9745;SDS011;4912;50.836;12.958;2022-12-07T15:20:46;5.65;;;2.03;;
9745;SDS011;4912;50.836;12.958;2022-12-07T15:23:16;4.00;;;1.80;;
9745;SDS011;4912;50.836;12.958;2022-12-07T15:25:47;3.77;;;1.87;;
9745;SDS011;4912;50.836;12.958;2022-12-07T15:28:18;3.70;;;2.00;;
9745;SDS011;4912;50.836;12.958;2022-12-07T15:30:48;4.30;;;2.13;;
9745;SDS011;4912;50.836;12.958;2022-12-07T15:33:19;4.50;;;2.03;;
9745;SDS011;4912;50.836;12.958;2022-12-07T15:35:52;6.13;;;2.20;;
9745;SDS011;4912;50.836;12.958;2022-12-07T15:38:22;6.38;;;2.20;;
9745;SDS011;4912;50.836;12.958;2022-12-07T15:41:14;3.65;;;1.70;;
9745;SDS011;4912;50.836;12.958;2022-12-07T15:43:46;5.13;;;2.40;;
9745;SDS011;4912;50.836;12.958;2022-12-07T15:46:29;6.22;;;2.60;;
9745;SDS011;4912;50.836;12.958;2022-12-07T15:49:01;5.60;;;2.42;;
9745;SDS011;4912;50.836;12.958;2022-12-07T15:51:34;6.05;;;2.10;;
9745;SDS011;4912;50.836;12.958;2022-12-07T15:54:05;4.05;;;2.00;;
9745;SDS011;4912;50.836;12.958;2022-12-07T15:56:35;5.93;;;2.33;;
9745;SDS011;4912;50.836;12.958;2022-12-07T15:59:05;7.90;;;2.33;;
9745;SDS011;4912;50.836;12.958;2022-12-07T16:01:35;6.30;;;2.33;;
9745;SDS011;4912;50.836;12.958;2022-12-07T16:04:06;4.35;;;1.77;;
9745;SDS011;4912;50.836;12.958;2022-12-07T16:06:39;6.45;;;2.22;;
9745;SDS011;4912;50.836;12.958;2022-12-07T16:09:11;4.82;;;2.17;;
9745;SDS011;4912;50.836;12.958;2022-12-07T16:11:41;5.90;;;2.30;;
9745;SDS011;4912;50.836;12.958;2022-12-07T16:14:13;6.90;;;2.23;;
9745;SDS011;4912;50.836;12.958;2022-12-07T16:16:43;6.72;;;2.25;;
9745;SDS011;4912;50.836;12.958;2022-12-07T16:19:14;5.33;;;2.00;;
9745;SDS011;4912;50.836;12.958;2022-12-07T16:21:47;6.53;;;2.00;;
9745;SDS011;4912;50.836;12.958;2022-12-07T16:24:17;4.75;;;1.90;;
9745;SDS011;4912;50.836;12.958;2022-12-07T16:26:47;7.10;;;2.13;;
9745;SDS011;4912;50.836;12.958;2022-12-07T16:29:19;4.38;;;1.90;;
9745;SDS011;4912;50.836;12.958;2022-12-07T16:31:51;3.35;;;1.70;;
9745;SDS011;4912;50.836;12.958;2022-12-07T16:34:22;4.30;;;2.65;;
9745;SDS011;4912;50.836;12.958;2022-12-07T16:36:55;5.77;;;2.47;;